createdAt,value
2018-08-06T00:00:31.700Z,24.44
2018-08-06T00:03:00.323Z,24.54
2018-08-06T00:05:28.989Z,24.50
2018-08-06T00:07:57.771Z,24.39
2018-08-06T00:10:27.283Z,24.22
2018-08-06T00:12:56.030Z,24.00
2018-08-06T00:15:24.712Z,23.96
2018-08-06T00:17:54.382Z,24.11
2018-08-06T00:20:23.053Z,24.07
2018-08-06T00:22:51.673Z,23.94
2018-08-06T00:25:20.373Z,23.87
2018-08-06T00:27:54.385Z,23.82
2018-08-06T00:30:23.068Z,23.82
2018-08-06T00:32:51.704Z,23.87
2018-08-06T00:35:20.398Z,23.86
2018-08-06T00:37:49.026Z,23.79
2018-08-06T00:40:19.498Z,23.81
2018-08-06T00:42:48.581Z,23.93
2018-08-06T00:45:19.056Z,23.85
2018-08-06T00:47:48.230Z,23.92
2018-08-06T00:50:16.893Z,23.80
2018-08-06T00:52:45.671Z,23.76
2018-08-06T00:55:16.336Z,23.53
2018-08-06T00:57:45.090Z,23.34
2018-08-06T01:00:15.011Z,23.25
2018-08-06T01:02:44.395Z,23.16
2018-08-06T01:07:48.082Z,23.27
2018-08-06T01:10:19.117Z,23.49
2018-08-06T01:12:47.806Z,23.62
2018-08-06T01:15:18.362Z,23.64
2018-08-06T01:17:47.142Z,23.61
2018-08-06T01:20:16.167Z,23.57
2018-08-06T01:22:45.768Z,23.51
2018-08-06T01:25:14.877Z,23.55
2018-08-06T01:27:43.628Z,23.57
2018-08-06T01:30:13.621Z,23.56
2018-08-06T01:32:42.265Z,23.63
2018-08-06T01:35:11.722Z,23.67
2018-08-06T01:37:40.453Z,23.60
2018-08-06T01:40:11.438Z,23.70
2018-08-06T01:42:40.389Z,23.89
2018-08-06T01:45:09.514Z,23.77
2018-08-06T01:47:38.549Z,23.69
2018-08-06T01:50:07.910Z,23.59
2018-08-06T01:52:36.594Z,23.68
2018-08-06T01:55:05.824Z,23.61
2018-08-06T01:57:34.588Z,23.57
2018-08-06T02:00:03.439Z,23.49
2018-08-06T02:02:32.063Z,23.44
2018-08-06T02:05:00.709Z,23.37
2018-08-06T02:07:29.533Z,23.49
2018-08-06T02:09:58.142Z,23.43
2018-08-06T02:12:26.763Z,23.34
2018-08-06T02:14:55.393Z,23.40
2018-08-06T02:17:24.027Z,23.42
2018-08-06T02:19:52.715Z,23.46
2018-08-06T02:22:21.346Z,23.42
2018-08-06T02:24:50.039Z,23.29
2018-08-06T02:27:18.685Z,23.21
2018-08-06T02:29:47.278Z,23.22
2018-08-06T02:32:15.892Z,23.26
2018-08-06T02:34:44.553Z,23.20
2018-08-06T02:37:13.147Z,23.07
2018-08-06T02:39:41.758Z,23.08
2018-08-06T02:42:10.590Z,22.95
2018-08-06T02:44:39.242Z,22.84
2018-08-06T02:47:07.929Z,22.86
2018-08-06T02:49:36.583Z,22.87
2018-08-06T02:52:05.406Z,22.79
2018-08-06T02:54:34.021Z,22.77
2018-08-06T02:57:02.791Z,22.79
2018-08-06T02:59:31.387Z,22.77
2018-08-06T03:02:00.010Z,22.78
2018-08-06T03:04:28.657Z,22.69
2018-08-06T03:06:57.471Z,22.64
2018-08-06T03:09:26.114Z,22.67
2018-08-06T03:11:54.809Z,22.62
2018-08-06T03:14:23.449Z,22.62
2018-08-06T03:16:52.106Z,22.60
2018-08-06T03:19:20.765Z,22.62
2018-08-06T03:21:49.360Z,22.75
2018-08-06T03:24:17.976Z,22.67
2018-08-06T03:26:46.615Z,22.57
2018-08-06T03:29:15.312Z,22.54
2018-08-06T03:31:43.915Z,22.55
2018-08-06T03:34:12.556Z,22.49
2018-08-06T03:36:41.193Z,22.54
2018-08-06T03:39:11.130Z,22.52
2018-08-06T03:41:39.815Z,22.42
2018-08-06T03:44:08.881Z,22.52
2018-08-06T03:46:37.630Z,22.52
2018-08-06T03:49:06.390Z,22.53
2018-08-06T03:51:35.030Z,22.64
2018-08-06T03:54:03.700Z,22.73
2018-08-06T03:56:32.321Z,22.76
2018-08-06T03:59:01.038Z,22.66
2018-08-06T04:01:29.677Z,22.50
2018-08-06T04:03:58.417Z,22.40
2018-08-06T04:06:27.039Z,22.32
2018-08-06T04:08:55.701Z,22.43
2018-08-06T04:11:24.284Z,22.55
2018-08-06T04:13:53.567Z,22.70
2018-08-06T04:16:22.269Z,22.72
2018-08-06T04:18:51.077Z,22.59
2018-08-06T04:21:19.717Z,22.71
2018-08-06T04:23:48.403Z,22.74
2018-08-06T04:26:17.040Z,22.80
2018-08-06T04:28:45.625Z,22.90
2018-08-06T04:31:14.305Z,22.91
2018-08-06T04:33:42.896Z,22.89
2018-08-06T04:36:11.539Z,22.86
2018-08-06T04:38:40.192Z,22.87
2018-08-06T04:41:08.850Z,22.93
2018-08-06T04:43:37.465Z,23.06
2018-08-06T04:46:06.316Z,22.99
2018-08-06T04:48:34.943Z,23.14
2018-08-06T04:51:04.001Z,23.10
2018-08-06T04:53:32.701Z,23.01
2018-08-06T04:56:01.407Z,23.14
2018-08-06T04:58:30.186Z,23.17
2018-08-06T05:00:58.974Z,23.16
2018-08-06T05:03:28.046Z,23.24
2018-08-06T05:05:56.651Z,23.32
2018-08-06T05:08:25.285Z,23.27
2018-08-06T05:10:53.951Z,23.45
2018-08-06T05:13:29.357Z,23.49
2018-08-06T05:15:58.269Z,23.60
2018-08-06T05:18:27.069Z,23.64
2018-08-06T05:20:55.799Z,23.70
2018-08-06T05:23:34.465Z,23.82
2018-08-06T05:26:03.676Z,23.89
2018-08-06T05:28:32.991Z,23.80
2018-08-06T05:31:01.751Z,23.85
2018-08-06T05:33:31.685Z,23.56
2018-08-06T05:36:00.538Z,23.52
2018-08-06T05:38:30.248Z,23.59
2018-08-06T05:40:58.850Z,23.48
2018-08-06T05:43:33.178Z,23.55
2018-08-06T05:46:02.832Z,23.62
2018-08-06T05:48:31.795Z,23.63
2018-08-06T05:51:02.205Z,23.75
2018-08-06T05:53:33.055Z,23.85
2018-08-06T05:56:01.763Z,23.81
2018-08-06T05:58:30.701Z,23.96
2018-08-06T06:00:59.357Z,23.79
2018-08-06T06:03:28.472Z,23.80
2018-08-06T06:05:57.239Z,23.87
2018-08-06T06:08:26.394Z,23.96
2018-08-06T06:10:55.113Z,24.03
2018-08-06T06:13:23.735Z,23.95
2018-08-06T06:15:52.426Z,23.78
2018-08-06T06:18:21.126Z,24.04
2018-08-06T06:20:49.856Z,24.14
2018-08-06T06:23:18.568Z,24.36
2018-08-06T06:25:47.681Z,24.46
2018-08-06T06:28:16.305Z,24.53
2018-08-06T06:30:45.004Z,24.44
2018-08-06T06:33:13.648Z,24.48
2018-08-06T06:35:44.611Z,24.56
2018-08-06T06:38:13.376Z,24.59
2018-08-06T06:40:42.068Z,24.44
2018-08-06T06:43:10.806Z,24.55
2018-08-06T06:45:39.522Z,24.60
2018-08-06T06:48:08.349Z,24.66
2018-08-06T06:50:37.094Z,24.80
2018-08-06T06:53:05.885Z,24.62
2018-08-06T06:55:34.522Z,24.44
2018-08-06T06:58:03.383Z,24.60
2018-08-06T07:00:32.227Z,24.79
2018-08-06T07:03:01.100Z,24.90
2018-08-06T07:05:29.851Z,24.71
2018-08-06T07:07:59.097Z,24.70
2018-08-06T07:10:30.680Z,24.84
2018-08-06T07:12:59.374Z,24.97
2018-08-06T07:15:28.067Z,25.11
2018-08-06T07:17:56.814Z,25.15
2018-08-06T07:20:25.768Z,25.33
2018-08-06T07:22:54.470Z,25.20
2018-08-06T07:25:23.257Z,25.13
2018-08-06T07:27:52.138Z,25.33
2018-08-06T07:30:20.897Z,25.16
2018-08-06T07:32:50.246Z,25.34
2018-08-06T07:35:19.770Z,25.44
2018-08-06T07:37:49.025Z,25.68
2018-08-06T07:40:17.825Z,25.87
2018-08-06T07:42:46.541Z,25.66
2018-08-06T07:45:18.158Z,25.64
2018-08-06T07:47:47.484Z,25.77
2018-08-06T07:50:18.231Z,25.78
2018-08-06T07:52:47.704Z,25.81
2018-08-06T07:55:17.146Z,25.77
2018-08-06T07:57:46.040Z,25.88
2018-08-06T08:00:17.398Z,26.13
2018-08-06T08:02:46.772Z,26.35
2018-08-06T08:05:16.613Z,26.29
2018-08-06T08:07:46.275Z,26.17
2018-08-06T08:10:18.681Z,26.11
2018-08-06T08:12:47.863Z,26.11
2018-08-06T08:15:22.893Z,26.06
2018-08-06T08:17:51.763Z,26.08
2018-08-06T08:20:20.816Z,26.10
2018-08-06T08:22:49.456Z,26.30
2018-08-06T08:25:20.202Z,26.41
2018-08-06T08:27:49.069Z,26.50
2018-08-06T08:30:18.510Z,26.37
2018-08-06T08:32:47.165Z,26.43
2018-08-06T08:35:16.834Z,26.52
2018-08-06T08:37:45.549Z,26.66
2018-08-06T08:40:16.193Z,27.15
2018-08-06T08:42:45.181Z,27.08
2018-08-06T08:45:15.244Z,26.88
2018-08-06T08:47:44.733Z,26.94
2018-08-06T08:50:16.800Z,26.70
2018-08-06T08:52:45.481Z,27.07
2018-08-06T08:55:15.711Z,27.35
2018-08-06T08:57:44.481Z,27.42
2018-08-06T09:00:15.836Z,27.61
2018-08-06T09:02:45.850Z,27.48
2018-08-06T09:05:15.106Z,27.20
2018-08-06T09:07:44.123Z,27.35
2018-08-06T09:10:14.141Z,27.37
2018-08-06T09:12:43.351Z,27.50
2018-08-06T09:15:24.939Z,27.80
2018-08-06T09:17:53.614Z,27.85
2018-08-06T09:20:22.530Z,27.71
2018-08-06T09:22:51.195Z,27.82
2018-08-06T09:25:19.855Z,27.90
2018-08-06T09:27:49.748Z,27.80
2018-08-06T09:30:19.963Z,27.67
2018-08-06T09:32:50.659Z,27.63
2018-08-06T09:35:19.809Z,27.71
2018-08-06T09:37:48.444Z,28.06
2018-08-06T09:40:18.363Z,28.13
2018-08-06T09:42:50.745Z,28.45
2018-08-06T09:45:20.468Z,28.51
2018-08-06T09:47:50.434Z,28.49
2018-08-06T09:50:19.676Z,28.27
2018-08-06T09:52:49.435Z,28.40
2018-08-06T09:55:21.255Z,28.67
2018-08-06T09:57:50.371Z,28.89
2018-08-06T10:13:17.647Z,29.33
2018-08-06T10:15:46.306Z,29.46
2018-08-06T10:18:14.998Z,29.25
2018-08-06T10:20:43.641Z,29.06
2018-08-06T10:23:12.257Z,29.33
2018-08-06T10:25:40.914Z,29.67
2018-08-06T10:28:09.558Z,29.64
2018-08-06T10:30:38.272Z,29.62
2018-08-06T10:33:06.951Z,29.18
2018-08-06T10:35:35.586Z,29.18
2018-08-06T10:38:04.249Z,29.12
2018-08-06T10:40:33.111Z,29.19
2018-08-06T10:43:01.740Z,29.30
2018-08-06T10:45:30.409Z,29.65
2018-08-06T10:47:59.114Z,29.75
2018-08-06T10:50:27.821Z,30.09
2018-08-06T10:52:56.501Z,30.35
2018-08-06T10:55:25.320Z,30.76
2018-08-06T10:57:54.051Z,30.51
2018-08-06T11:00:23.751Z,30.58
2018-08-06T11:02:53.242Z,30.64
2018-08-06T11:05:21.967Z,30.75
2018-08-06T11:07:50.681Z,31.25
2018-08-06T11:10:20.682Z,31.71
2018-08-06T11:12:50.161Z,31.79
2018-08-06T11:15:20.090Z,32.02
2018-08-06T11:17:48.906Z,32.29
2018-08-06T11:20:18.342Z,32.45
2018-08-06T11:22:46.958Z,32.66
2018-08-06T11:25:17.474Z,32.08
2018-08-06T11:27:46.329Z,32.05
2018-08-06T11:30:16.806Z,31.87
2018-08-06T11:32:46.045Z,31.92
2018-08-06T11:35:15.270Z,32.11
2018-08-06T11:37:43.953Z,32.38
2018-08-06T11:40:14.175Z,32.70
2018-08-06T11:42:43.958Z,32.95
2018-08-06T11:45:14.929Z,33.28
2018-08-06T11:47:43.685Z,33.50
2018-08-06T11:50:12.396Z,33.68
2018-08-06T11:52:41.055Z,33.96
2018-08-06T11:55:10.364Z,34.14
2018-08-06T11:57:39.018Z,34.31
2018-08-06T12:00:13.184Z,34.30
2018-08-06T12:02:42.032Z,33.17
2018-08-06T12:05:11.806Z,32.92
2018-08-06T12:07:40.643Z,32.85
2018-08-06T12:10:15.469Z,32.81
2018-08-06T12:12:45.589Z,32.15
2018-08-06T12:15:14.425Z,32.00
2018-08-06T12:17:43.410Z,32.16
2018-08-06T12:20:14.947Z,32.32
2018-08-06T12:22:44.861Z,32.37
2018-08-06T12:25:14.485Z,32.80
2018-08-06T12:27:43.693Z,33.16
2018-08-06T12:30:15.229Z,33.01
2018-08-06T12:32:44.808Z,32.87
2018-08-06T12:35:13.955Z,32.51
2018-08-06T12:37:42.800Z,32.24
2018-08-06T12:40:14.593Z,32.25
2018-08-06T12:42:43.497Z,32.58
2018-08-06T12:45:15.692Z,32.61
2018-08-06T12:47:45.014Z,32.38
2018-08-06T12:50:14.726Z,32.63
2018-08-06T12:52:43.822Z,32.95
2018-08-06T12:55:13.657Z,33.01
2018-08-06T12:57:43.038Z,33.62
2018-08-06T13:00:17.806Z,34.02
2018-08-06T13:02:47.481Z,34.29
2018-08-06T13:05:16.365Z,35.03
2018-08-06T13:07:45.027Z,35.19
2018-08-06T13:10:14.495Z,35.15
2018-08-06T13:12:43.214Z,35.05
2018-08-06T13:15:13.082Z,34.50
2018-08-06T13:17:41.767Z,34.28
2018-08-06T13:20:10.662Z,34.18
2018-08-06T13:22:39.358Z,34.48
2018-08-06T13:25:10.008Z,34.79
2018-08-06T13:27:38.749Z,35.47
2018-08-06T13:30:09.673Z,35.59
2018-08-06T13:32:38.454Z,35.68
2018-08-06T13:35:07.102Z,36.08
2018-08-06T13:37:35.761Z,35.63
2018-08-06T13:40:10.037Z,35.68
2018-08-06T13:42:39.059Z,35.37
2018-08-06T13:45:09.755Z,34.89
2018-08-06T13:47:38.618Z,33.69
2018-08-06T13:50:08.205Z,33.68
2018-08-06T13:52:37.300Z,33.22
2018-08-06T13:55:07.117Z,33.76
2018-08-06T13:57:35.969Z,33.95
2018-08-06T14:00:08.802Z,33.95
2018-08-06T14:02:37.541Z,34.56
2018-08-06T14:05:07.204Z,35.35
2018-08-06T14:07:35.965Z,35.54
2018-08-06T14:10:05.434Z,35.87
2018-08-06T14:12:34.105Z,35.73
2018-08-06T14:15:02.758Z,35.58
2018-08-06T14:17:31.483Z,35.97
2018-08-06T14:20:00.496Z,36.88
2018-08-06T14:22:29.245Z,37.72
2018-08-06T14:24:58.046Z,37.79
2018-08-06T14:27:26.729Z,37.96
2018-08-06T14:29:55.442Z,38.00
2018-08-06T14:32:24.178Z,37.79
2018-08-06T14:34:52.900Z,38.14
2018-08-06T14:37:21.610Z,37.94
2018-08-06T14:39:50.369Z,38.43
2018-08-06T14:42:19.438Z,39.01
2018-08-06T14:44:48.260Z,38.91
2018-08-06T14:47:17.247Z,39.67
2018-08-06T14:49:47.694Z,40.00
2018-08-06T14:52:16.514Z,40.72
2018-08-06T14:54:45.423Z,40.72
2018-08-06T14:57:14.145Z,41.27
2018-08-06T14:59:43.270Z,41.54
2018-08-06T15:02:11.983Z,41.71
2018-08-06T15:04:40.695Z,42.14
2018-08-06T15:07:09.393Z,41.67
2018-08-06T15:09:38.382Z,41.65
2018-08-06T15:12:07.432Z,42.50
2018-08-06T15:14:36.165Z,41.76
2018-08-06T15:17:04.942Z,42.52
2018-08-06T15:19:33.572Z,43.22
2018-08-06T15:22:02.284Z,43.25
2018-08-06T15:24:30.905Z,42.62
2018-08-06T15:27:00.420Z,42.57
2018-08-06T15:29:29.436Z,42.92
2018-08-06T15:31:58.247Z,43.08
2018-08-06T15:34:26.914Z,44.12
2018-08-06T15:36:55.673Z,45.44
2018-08-06T15:39:24.394Z,44.49
2018-08-06T15:41:53.103Z,42.43
2018-08-06T15:44:22.029Z,41.56
2018-08-06T15:46:50.917Z,41.00
2018-08-06T15:49:19.604Z,39.19
2018-08-06T15:51:48.317Z,39.86
2018-08-06T15:54:16.985Z,39.74
2018-08-06T15:56:45.696Z,39.35
2018-08-06T15:59:14.348Z,39.37
2018-08-06T16:01:43.045Z,39.90
2018-08-06T16:04:11.753Z,40.09
2018-08-06T16:06:40.429Z,40.00
2018-08-06T16:09:09.250Z,40.21
2018-08-06T16:11:37.942Z,40.06
2018-08-06T16:14:06.787Z,40.28
2018-08-06T16:16:35.633Z,40.78
2018-08-06T16:19:04.293Z,41.51
2018-08-06T16:21:33.000Z,42.35
2018-08-06T16:24:01.807Z,42.68
2018-08-06T16:26:30.530Z,42.31
2018-08-06T16:28:59.338Z,42.12
2018-08-06T16:31:27.998Z,42.80
2018-08-06T16:33:56.706Z,43.84
2018-08-06T16:36:25.585Z,43.90
2018-08-06T16:38:54.396Z,43.47
2018-08-06T16:41:23.158Z,43.92
2018-08-06T16:43:52.049Z,44.25
2018-08-06T16:46:20.893Z,45.37
2018-08-06T16:48:49.653Z,45.65
2018-08-06T16:51:18.457Z,45.40
2018-08-06T16:53:47.336Z,45.47
2018-08-06T16:56:16.102Z,45.61
2018-08-06T16:58:44.851Z,44.60
2018-08-06T17:01:13.702Z,43.51
2018-08-06T17:03:42.429Z,42.55
2018-08-06T17:06:11.248Z,42.07
2018-08-06T17:08:39.942Z,41.68
2018-08-06T17:11:08.814Z,40.90
2018-08-06T17:13:37.540Z,40.90
2018-08-06T17:16:06.236Z,40.77
2018-08-06T17:18:35.845Z,41.12
2018-08-06T17:21:04.568Z,42.06
2018-08-06T17:23:33.336Z,42.25
2018-08-06T17:26:01.992Z,42.23
2018-08-06T17:28:30.738Z,42.53
2018-08-06T17:30:59.470Z,42.78
2018-08-06T17:33:28.264Z,42.78
2018-08-06T17:35:56.953Z,42.34
2018-08-06T17:38:25.668Z,41.16
2018-08-06T17:40:54.426Z,39.39
2018-08-06T17:43:23.117Z,37.90
2018-08-06T17:45:51.889Z,36.55
2018-08-06T17:48:20.613Z,35.46
2018-08-06T17:50:49.291Z,34.58
2018-08-06T17:53:17.965Z,33.91
2018-08-06T17:55:46.891Z,33.40
2018-08-06T17:58:15.491Z,32.94
2018-08-06T18:00:44.182Z,32.48
2018-08-06T18:03:12.859Z,32.06
2018-08-06T18:05:41.588Z,31.71
2018-08-06T18:08:10.273Z,31.41
2018-08-06T18:10:38.921Z,31.07
2018-08-06T18:13:07.643Z,30.73
2018-08-06T18:15:36.545Z,30.45
2018-08-06T18:18:06.298Z,30.19
2018-08-06T18:20:35.054Z,29.93
2018-08-06T18:23:03.774Z,29.65
2018-08-06T18:25:32.551Z,29.42
2018-08-06T18:28:01.275Z,29.21
2018-08-06T18:30:30.147Z,29.02
2018-08-06T18:32:58.872Z,28.77
2018-08-06T18:35:27.586Z,28.55
2018-08-06T18:37:59.171Z,28.35
2018-08-06T18:40:27.879Z,28.24
2018-08-06T18:42:56.673Z,28.13
2018-08-06T18:45:25.546Z,27.95
2018-08-06T18:47:54.286Z,27.72
2018-08-06T18:50:23.010Z,27.50
2018-08-06T18:52:51.989Z,27.28
2018-08-06T18:55:20.718Z,27.13
2018-08-06T18:57:49.616Z,26.98
2018-08-06T19:00:20.927Z,26.87
2018-08-06T19:02:49.917Z,26.78
2018-08-06T19:05:18.671Z,26.68
2018-08-06T19:07:47.413Z,26.54
2018-08-06T19:10:16.261Z,26.44
2018-08-06T19:12:50.146Z,26.35
2018-08-06T19:15:18.912Z,26.26
2018-08-06T19:17:52.813Z,26.24
2018-08-06T19:20:21.582Z,26.20
2018-08-06T19:22:50.358Z,26.13
2018-08-06T19:25:27.066Z,26.07
2018-08-06T19:27:56.289Z,26.02
2018-08-06T19:31:28.307Z,25.91
2018-08-06T19:33:58.040Z,25.80
2018-08-06T19:36:26.846Z,25.72
2018-08-06T19:38:55.625Z,25.70
2018-08-06T19:41:24.379Z,25.66
2018-08-06T19:43:53.066Z,25.62
2018-08-06T19:46:21.847Z,25.50
2018-08-06T19:48:54.771Z,25.40
2018-08-06T19:51:23.575Z,25.36
2018-08-06T19:53:52.453Z,25.33
2018-08-06T19:56:21.366Z,25.30
2018-08-06T19:58:50.347Z,25.26
2018-08-06T20:01:19.475Z,25.22
2018-08-06T20:03:48.339Z,25.21
2018-08-06T20:06:17.154Z,25.18
2018-08-06T20:08:46.120Z,25.18
2018-08-06T20:11:14.947Z,25.19
2018-08-06T20:13:43.866Z,25.13
2018-08-06T20:16:12.773Z,25.10
2018-08-06T20:18:41.595Z,25.14
2018-08-06T20:21:11.461Z,25.13
2018-08-06T20:23:44.818Z,25.09
2018-08-06T20:26:13.975Z,25.07
2018-08-06T20:28:43.297Z,25.08
2018-08-06T20:31:12.148Z,25.01
2018-08-06T20:33:41.171Z,24.92
2018-08-06T20:36:10.183Z,24.87
2018-08-06T20:38:38.944Z,24.78
2018-08-06T20:41:07.950Z,24.77
2018-08-06T20:43:36.714Z,24.71
2018-08-06T20:46:05.716Z,24.79
2018-08-06T20:48:34.571Z,24.83
2018-08-06T20:51:03.652Z,24.83
2018-08-06T20:53:32.362Z,24.85
2018-08-06T20:56:01.070Z,24.79
2018-08-06T20:58:29.950Z,24.65
2018-08-06T21:00:59.661Z,24.52
2018-08-06T21:03:28.406Z,24.38
2018-08-06T21:05:57.313Z,24.28
2018-08-06T21:08:26.005Z,24.24
2018-08-06T21:10:54.745Z,24.20
2018-08-06T21:13:23.487Z,24.21
2018-08-06T21:15:52.246Z,24.13
2018-08-06T21:18:21.039Z,24.13
2018-08-06T21:20:49.925Z,24.10
2018-08-06T21:23:18.654Z,24.06
2018-08-06T21:25:47.367Z,24.01
2018-08-06T21:28:16.212Z,23.99
2018-08-06T21:30:44.965Z,23.92
2018-08-06T21:33:13.750Z,23.86
2018-08-06T21:35:42.507Z,23.85
2018-08-06T21:38:12.444Z,23.85
2018-08-06T21:40:41.150Z,23.88
2018-08-06T21:43:09.897Z,23.91
2018-08-06T21:45:38.756Z,23.89
2018-08-06T21:48:07.442Z,23.91
2018-08-06T21:50:36.205Z,23.94
2018-08-06T21:53:04.867Z,23.93
2018-08-06T21:55:33.551Z,23.91
2018-08-06T21:58:02.258Z,23.97
2018-08-06T22:00:38.314Z,24.06
2018-08-06T22:03:10.826Z,24.00
2018-08-06T22:05:39.530Z,24.02
2018-08-06T22:08:08.477Z,23.92
2018-08-06T22:10:37.355Z,23.85
2018-08-06T22:13:06.735Z,23.79
2018-08-06T22:15:35.622Z,23.75
2018-08-06T22:18:04.434Z,23.80
2018-08-06T22:20:33.138Z,23.83
2018-08-06T22:23:01.843Z,23.77
2018-08-06T22:25:30.597Z,23.72
2018-08-06T22:27:59.442Z,23.73
2018-08-06T22:30:28.209Z,24.02
2018-08-06T22:32:56.967Z,24.13
2018-08-06T22:35:25.659Z,24.16
2018-08-06T22:37:54.366Z,23.96
2018-08-06T22:40:23.074Z,23.88
2018-08-06T22:42:51.805Z,23.82
2018-08-06T22:45:20.560Z,23.78
2018-08-06T22:47:49.287Z,23.68
2018-08-06T22:50:17.977Z,23.61
2018-08-06T22:52:46.708Z,23.62
2018-08-06T22:55:15.461Z,23.68
2018-08-06T22:57:44.183Z,23.59
2018-08-06T23:00:16.298Z,23.43
2018-08-06T23:02:45.538Z,23.28
2018-08-06T23:05:15.765Z,23.15
2018-08-06T23:07:44.587Z,23.11
2018-08-06T23:10:14.639Z,23.01
2018-08-06T23:12:43.436Z,22.93
2018-08-06T23:15:14.796Z,22.89
2018-08-06T23:17:43.992Z,22.87
2018-08-06T23:20:13.293Z,22.90
2018-08-06T23:22:42.140Z,22.94
2018-08-06T23:25:10.942Z,22.92
2018-08-06T23:27:39.715Z,22.86
2018-08-06T23:30:13.343Z,22.80
2018-08-06T23:32:42.319Z,22.85
2018-08-06T23:35:12.374Z,22.91
2018-08-06T23:37:42.364Z,22.93
2018-08-06T23:40:11.756Z,22.96
2018-08-06T23:42:41.065Z,22.93
2018-08-06T23:45:11.047Z,22.84
2018-08-06T23:47:40.557Z,22.78
2018-08-06T23:50:11.962Z,22.78
2018-08-06T23:52:42.073Z,22.74
2018-08-06T23:55:12.080Z,22.65
2018-08-06T23:57:40.759Z,22.63
